sensor_id;sensor_type;location;lat;lon;timestamp;pressure;altitude;pressure_sealevel;temperature;humidity
58385;BME280;44185;47.844;8.966;2022-11-15T00:01:55;96025.38;;;1.71;100.00
58385;BME280;44185;47.844;8.966;2022-11-15T00:04:21;96035.56;;;1.76;100.00
58385;BME280;44185;47.844;8.966;2022-11-15T00:06:46;96046.94;;;1.75;100.00
58385;BME280;44185;47.844;8.966;2022-11-15T00:09:13;96048.25;;;1.66;100.00
58385;BME280;44185;47.844;8.966;2022-11-15T00:11:39;96047.50;;;1.64;100.00
58385;BME280;44185;47.844;8.966;2022-11-15T00:14:05;96034.63;;;1.61;100.00
58385;BME280;44185;47.844;8.966;2022-11-15T00:16:30;96031.31;;;1.57;100.00
58385;BME280;44185;47.844;8.966;2022-11-15T00:18:56;96026.53;;;1.65;100.00
58385;BME280;44185;47.844;8.966;2022-11-15T00:21:21;96015.19;;;1.66;100.00
58385;BME280;44185;47.844;8.966;2022-11-15T00:23:47;96020.41;;;1.66;100.00
58385;BME280;44185;47.844;8.966;2022-11-15T00:26:15;96013.69;;;1.78;100.00
58385;BME280;44185;47.844;8.966;2022-11-15T00:28:41;96020.84;;;1.75;100.00
58385;BME280;44185;47.844;8.966;2022-11-15T00:31:09;96024.13;;;1.78;100.00
58385;BME280;44185;47.844;8.966;2022-11-15T00:33:36;96021.84;;;1.56;100.00
58385;BME280;44185;47.844;8.966;2022-11-15T00:36:02;96022.28;;;1.64;100.00
58385;BME280;44185;47.844;8.966;2022-11-15T00:38:30;96025.63;;;1.66;100.00
58385;BME280;44185;47.844;8.966;2022-11-15T00:40:56;96017.88;;;1.65;100.00
58385;BME280;44185;47.844;8.966;2022-11-15T00:43:23;96020.75;;;1.76;100.00
58385;BME280;44185;47.844;8.966;2022-11-15T00:45:48;96013.19;;;1.72;100.00
58385;BME280;44185;47.844;8.966;2022-11-15T00:48:14;96020.31;;;1.68;100.00
58385;BME280;44185;47.844;8.966;2022-11-15T00:50:39;96012.66;;;1.65;100.00
58385;BME280;44185;47.844;8.966;2022-11-15T00:53:05;96017.13;;;1.63;100.00
58385;BME280;44185;47.844;8.966;2022-11-15T00:55:30;96007.19;;;1.53;100.00
58385;BME280;44185;47.844;8.966;2022-11-15T00:57:56;95999.22;;;1.57;100.00
58385;BME280;44185;47.844;8.966;2022-11-15T01:00:23;95994.59;;;1.62;100.00
58385;BME280;44185;47.844;8.966;2022-11-15T01:02:48;95997.25;;;1.60;100.00
58385;BME280;44185;47.844;8.966;2022-11-15T01:05:14;96004.06;;;1.63;100.00
58385;BME280;44185;47.844;8.966;2022-11-15T01:07:39;95994.41;;;1.65;100.00
58385;BME280;44185;47.844;8.966;2022-11-15T01:10:06;95999.19;;;1.73;100.00
58385;BME280;44185;47.844;8.966;2022-11-15T01:12:31;95993.38;;;1.51;100.00
58385;BME280;44185;47.844;8.966;2022-11-15T01:14:57;95998.44;;;1.20;100.00
58385;BME280;44185;47.844;8.966;2022-11-15T01:17:24;95996.34;;;1.11;100.00
58385;BME280;44185;47.844;8.966;2022-11-15T01:19:50;96005.44;;;1.20;100.00
58385;BME280;44185;47.844;8.966;2022-11-15T01:22:15;95998.81;;;1.30;100.00
58385;BME280;44185;47.844;8.966;2022-11-15T01:24:41;95991.16;;;1.27;100.00
58385;BME280;44185;47.844;8.966;2022-11-15T01:27:07;95989.16;;;1.32;100.00
58385;BME280;44185;47.844;8.966;2022-11-15T01:29:33;95986.38;;;1.36;100.00
58385;BME280;44185;47.844;8.966;2022-11-15T01:31:58;95992.84;;;1.28;100.00
58385;BME280;44185;47.844;8.966;2022-11-15T01:34:25;95994.84;;;1.23;100.00
58385;BME280;44185;47.844;8.966;2022-11-15T01:36:51;95995.00;;;1.20;100.00
58385;BME280;44185;47.844;8.966;2022-11-15T01:39:16;95988.81;;;1.05;100.00
58385;BME280;44185;47.844;8.966;2022-11-15T01:41:42;95983.34;;;1.27;100.00
58385;BME280;44185;47.844;8.966;2022-11-15T01:44:38;95980.56;;;1.30;100.00
58385;BME280;44185;47.844;8.966;2022-11-15T01:47:08;95974.28;;;1.35;100.00
58385;BME280;44185;47.844;8.966;2022-11-15T01:49:37;95970.72;;;1.36;100.00
58385;BME280;44185;47.844;8.966;2022-11-15T01:52:07;95970.41;;;1.42;100.00
58385;BME280;44185;47.844;8.966;2022-11-15T01:54:34;95970.00;;;1.50;100.00
58385;BME280;44185;47.844;8.966;2022-11-15T01:57:03;95965.09;;;1.43;100.00
58385;BME280;44185;47.844;8.966;2022-11-15T01:59:29;95960.72;;;1.44;100.00
58385;BME280;44185;47.844;8.966;2022-11-15T02:01:55;95952.75;;;1.47;100.00
58385;BME280;44185;47.844;8.966;2022-11-15T02:04:24;95955.94;;;1.52;100.00
58385;BME280;44185;47.844;8.966;2022-11-15T02:06:52;95959.13;;;1.58;100.00
58385;BME280;44185;47.844;8.966;2022-11-15T02:09:18;95944.19;;;1.61;100.00
58385;BME280;44185;47.844;8.966;2022-11-15T02:11:44;95940.97;;;1.56;100.00
58385;BME280;44185;47.844;8.966;2022-11-15T02:14:11;95945.09;;;1.60;100.00
58385;BME280;44185;47.844;8.966;2022-11-15T02:16:45;95946.78;;;1.61;100.00
58385;BME280;44185;47.844;8.966;2022-11-15T02:19:25;95941.06;;;1.71;100.00
58385;BME280;44185;47.844;8.966;2022-11-15T02:22:04;95936.41;;;1.76;100.00
58385;BME280;44185;47.844;8.966;2022-11-15T02:24:58;95936.16;;;1.81;100.00
58385;BME280;44185;47.844;8.966;2022-11-15T02:27:47;95935.81;;;1.87;100.00
58385;BME280;44185;47.844;8.966;2022-11-15T02:30:33;95930.44;;;1.90;100.00
58385;BME280;44185;47.844;8.966;2022-11-15T02:33:09;95930.03;;;1.82;100.00
58385;BME280;44185;47.844;8.966;2022-11-15T02:35:43;95930.72;;;1.69;100.00
58385;BME280;44185;47.844;8.966;2022-11-15T02:38:16;95915.97;;;1.68;100.00
58385;BME280;44185;47.844;8.966;2022-11-15T02:40:50;95917.56;;;1.71;100.00
58385;BME280;44185;47.844;8.966;2022-11-15T02:43:27;95905.38;;;1.71;100.00
58385;BME280;44185;47.844;8.966;2022-11-15T02:46:01;95908.91;;;1.70;100.00
58385;BME280;44185;47.844;8.966;2022-11-15T02:48:30;95916.41;;;1.76;100.00
58385;BME280;44185;47.844;8.966;2022-11-15T02:50:58;95902.25;;;1.81;100.00
58385;BME280;44185;47.844;8.966;2022-11-15T02:53:24;95903.94;;;1.82;100.00
58385;BME280;44185;47.844;8.966;2022-11-15T02:55:51;95911.00;;;1.80;100.00
58385;BME280;44185;47.844;8.966;2022-11-15T02:58:34;95914.91;;;1.72;100.00
58385;BME280;44185;47.844;8.966;2022-11-15T03:01:09;95908.72;;;1.73;100.00
58385;BME280;44185;47.844;8.966;2022-11-15T03:03:48;95909.47;;;1.75;100.00
58385;BME280;44185;47.844;8.966;2022-11-15T03:06:27;95894.59;;;1.77;100.00
58385;BME280;44185;47.844;8.966;2022-11-15T03:09:03;95892.38;;;1.86;100.00
58385;BME280;44185;47.844;8.966;2022-11-15T03:11:32;95890.56;;;1.88;100.00
58385;BME280;44185;47.844;8.966;2022-11-15T03:14:07;95878.16;;;1.92;100.00
58385;BME280;44185;47.844;8.966;2022-11-15T03:16:40;95879.25;;;1.87;100.00
58385;BME280;44185;47.844;8.966;2022-11-15T03:19:11;95884.03;;;1.95;100.00
58385;BME280;44185;47.844;8.966;2022-11-15T03:21:39;95882.34;;;1.94;100.00
58385;BME280;44185;47.844;8.966;2022-11-15T03:24:07;95879.41;;;2.00;100.00
58385;BME280;44185;47.844;8.966;2022-11-15T03:26:33;95876.34;;;2.08;100.00
58385;BME280;44185;47.844;8.966;2022-11-15T03:29:03;95877.09;;;2.10;100.00
58385;BME280;44185;47.844;8.966;2022-11-15T03:31:33;95872.56;;;2.14;100.00
58385;BME280;44185;47.844;8.966;2022-11-15T03:34:04;95880.22;;;2.17;100.00
58385;BME280;44185;47.844;8.966;2022-11-15T03:36:32;95869.66;;;2.19;100.00
58385;BME280;44185;47.844;8.966;2022-11-15T03:39:01;95868.41;;;2.10;100.00
58385;BME280;44185;47.844;8.966;2022-11-15T03:41:35;95870.22;;;2.09;100.00
58385;BME280;44185;47.844;8.966;2022-11-15T03:44:06;95865.22;;;2.05;100.00
58385;BME280;44185;47.844;8.966;2022-11-15T03:46:39;95867.19;;;2.01;100.00
58385;BME280;44185;47.844;8.966;2022-11-15T03:49:12;95864.16;;;2.09;100.00
58385;BME280;44185;47.844;8.966;2022-11-15T03:51:39;95852.50;;;2.15;100.00
58385;BME280;44185;47.844;8.966;2022-11-15T03:54:05;95852.69;;;2.11;100.00
58385;BME280;44185;47.844;8.966;2022-11-15T03:56:31;95844.28;;;2.06;100.00
58385;BME280;44185;47.844;8.966;2022-11-15T03:58:56;95841.41;;;2.11;100.00
58385;BME280;44185;47.844;8.966;2022-11-15T04:01:22;95846.28;;;2.17;100.00
58385;BME280;44185;47.844;8.966;2022-11-15T04:03:47;95858.88;;;2.25;100.00
58385;BME280;44185;47.844;8.966;2022-11-15T04:06:14;95853.28;;;2.31;100.00
58385;BME280;44185;47.844;8.966;2022-11-15T04:08:40;95848.91;;;2.32;100.00
58385;BME280;44185;47.844;8.966;2022-11-15T04:11:06;95854.97;;;2.47;100.00
58385;BME280;44185;47.844;8.966;2022-11-15T04:13:31;95861.66;;;2.37;100.00
58385;BME280;44185;47.844;8.966;2022-11-15T04:15:57;95865.41;;;2.32;100.00
58385;BME280;44185;47.844;8.966;2022-11-15T04:18:22;95864.91;;;2.26;100.00
58385;BME280;44185;47.844;8.966;2022-11-15T04:20:48;95861.56;;;2.24;100.00
58385;BME280;44185;47.844;8.966;2022-11-15T04:23:16;95858.88;;;2.25;100.00
58385;BME280;44185;47.844;8.966;2022-11-15T04:25:43;95867.34;;;2.29;100.00
58385;BME280;44185;47.844;8.966;2022-11-15T04:28:09;95865.97;;;2.38;100.00
58385;BME280;44185;47.844;8.966;2022-11-15T04:30:35;95857.97;;;2.41;100.00
58385;BME280;44185;47.844;8.966;2022-11-15T04:33:00;95865.53;;;2.46;100.00
58385;BME280;44185;47.844;8.966;2022-11-15T04:35:26;95847.63;;;2.54;100.00
58385;BME280;44185;47.844;8.966;2022-11-15T04:37:51;95843.44;;;2.51;100.00
58385;BME280;44185;47.844;8.966;2022-11-15T04:40:19;95842.56;;;2.51;100.00
58385;BME280;44185;47.844;8.966;2022-11-15T04:42:44;95845.56;;;2.59;100.00
58385;BME280;44185;47.844;8.966;2022-11-15T04:45:11;95838.47;;;2.61;100.00
58385;BME280;44185;47.844;8.966;2022-11-15T04:47:36;95837.72;;;2.59;100.00
58385;BME280;44185;47.844;8.966;2022-11-15T04:50:02;95841.84;;;2.49;100.00
58385;BME280;44185;47.844;8.966;2022-11-15T04:52:28;95842.28;;;2.41;100.00
58385;BME280;44185;47.844;8.966;2022-11-15T04:54:54;95843.31;;;2.53;100.00
58385;BME280;44185;47.844;8.966;2022-11-15T04:57:20;95842.22;;;2.57;100.00
58385;BME280;44185;47.844;8.966;2022-11-15T04:59:46;95851.34;;;2.64;100.00
58385;BME280;44185;47.844;8.966;2022-11-15T05:02:12;95832.97;;;2.66;100.00
58385;BME280;44185;47.844;8.966;2022-11-15T05:04:37;95838.84;;;2.55;100.00
58385;BME280;44185;47.844;8.966;2022-11-15T05:07:03;95843.78;;;2.45;100.00
58385;BME280;44185;47.844;8.966;2022-11-15T05:09:28;95840.53;;;2.41;100.00
58385;BME280;44185;47.844;8.966;2022-11-15T05:11:54;95831.09;;;2.39;100.00
58385;BME280;44185;47.844;8.966;2022-11-15T05:14:21;95838.16;;;2.37;100.00
58385;BME280;44185;47.844;8.966;2022-11-15T05:16:46;95842.72;;;2.18;100.00
58385;BME280;44185;47.844;8.966;2022-11-15T05:19:12;95843.44;;;2.06;100.00
58385;BME280;44185;47.844;8.966;2022-11-15T05:21:37;95842.72;;;2.18;100.00
58385;BME280;44185;47.844;8.966;2022-11-15T05:24:04;95834.13;;;2.16;100.00
58385;BME280;44185;47.844;8.966;2022-11-15T05:26:30;95823.97;;;2.26;100.00
58385;BME280;44185;47.844;8.966;2022-11-15T05:28:56;95827.44;;;2.27;100.00
58385;BME280;44185;47.844;8.966;2022-11-15T05:31:24;95831.34;;;2.19;100.00
58385;BME280;44185;47.844;8.966;2022-11-15T05:33:50;95831.34;;;2.19;100.00
58385;BME280;44185;47.844;8.966;2022-11-15T05:36:20;95823.13;;;2.26;100.00
58385;BME280;44185;47.844;8.966;2022-11-15T05:38:48;95826.53;;;2.28;100.00
58385;BME280;44185;47.844;8.966;2022-11-15T05:41:15;95822.88;;;2.30;100.00
58385;BME280;44185;47.844;8.966;2022-11-15T05:43:42;95817.56;;;2.17;100.00
58385;BME280;44185;47.844;8.966;2022-11-15T05:46:09;95822.09;;;2.14;100.00
58385;BME280;44185;47.844;8.966;2022-11-15T05:48:37;95820.16;;;2.17;100.00
58385;BME280;44185;47.844;8.966;2022-11-15T05:51:06;95813.81;;;2.21;100.00
58385;BME280;44185;47.844;8.966;2022-11-15T05:53:33;95813.91;;;2.20;100.00
58385;BME280;44185;47.844;8.966;2022-11-15T05:55:58;95812.34;;;2.17;100.00
58385;BME280;44185;47.844;8.966;2022-11-15T05:58:24;95810.16;;;2.09;100.00
58385;BME280;44185;47.844;8.966;2022-11-15T06:00:49;95814.63;;;2.07;100.00
58385;BME280;44185;47.844;8.966;2022-11-15T06:03:15;95813.41;;;1.98;100.00
58385;BME280;44185;47.844;8.966;2022-11-15T06:05:42;95817.66;;;1.85;100.00
58385;BME280;44185;47.844;8.966;2022-11-15T06:08:07;95820.16;;;1.86;100.00
58385;BME280;44185;47.844;8.966;2022-11-15T06:10:33;95823.09;;;1.96;100.00
58385;BME280;44185;47.844;8.966;2022-11-15T06:12:58;95823.84;;;1.98;100.00
58385;BME280;44185;47.844;8.966;2022-11-15T06:15:25;95821.25;;;1.98;100.00
58385;BME280;44185;47.844;8.966;2022-11-15T06:17:50;95818.97;;;1.92;100.00
58385;BME280;44185;47.844;8.966;2022-11-15T06:20:16;95811.31;;;1.89;100.00
58385;BME280;44185;47.844;8.966;2022-11-15T06:22:42;95811.59;;;1.84;100.00
58385;BME280;44185;47.844;8.966;2022-11-15T06:25:08;95809.38;;;1.93;100.00
58385;BME280;44185;47.844;8.966;2022-11-15T06:27:34;95806.41;;;1.68;100.00
58385;BME280;44185;47.844;8.966;2022-11-15T06:29:59;95811.88;;;1.80;100.00
58385;BME280;44185;47.844;8.966;2022-11-15T06:32:25;95810.16;;;1.78;100.00
58385;BME280;44185;47.844;8.966;2022-11-15T06:34:51;95813.63;;;1.79;100.00
58385;BME280;44185;47.844;8.966;2022-11-15T06:37:16;95817.38;;;1.89;100.00
58385;BME280;44185;47.844;8.966;2022-11-15T06:39:43;95811.88;;;1.94;100.00
58385;BME280;44185;47.844;8.966;2022-11-15T06:42:09;95805.34;;;1.87;100.00
58385;BME280;44185;47.844;8.966;2022-11-15T06:44:34;95811.75;;;1.81;100.00
58385;BME280;44185;47.844;8.966;2022-11-15T06:47:00;95809.28;;;1.94;100.00
58385;BME280;44185;47.844;8.966;2022-11-15T06:49:25;95813.69;;;1.94;100.00
58385;BME280;44185;47.844;8.966;2022-11-15T06:51:51;95805.13;;;2.06;100.00
58385;BME280;44185;47.844;8.966;2022-11-15T06:54:16;95809.97;;;2.13;100.00
58385;BME280;44185;47.844;8.966;2022-11-15T06:56:43;95813.44;;;2.13;100.00
58385;BME280;44185;47.844;8.966;2022-11-15T06:59:08;95807.09;;;2.17;100.00
58385;BME280;44185;47.844;8.966;2022-11-15T07:01:34;95804.31;;;2.35;100.00
58385;BME280;44185;47.844;8.966;2022-11-15T07:03:59;95814.41;;;2.41;100.00
58385;BME280;44185;47.844;8.966;2022-11-15T07:06:25;95803.03;;;2.57;100.00
58385;BME280;44185;47.844;8.966;2022-11-15T07:08:51;95810.47;;;2.63;100.00
58385;BME280;44185;47.844;8.966;2022-11-15T07:11:16;95811.81;;;2.71;100.00
58385;BME280;44185;47.844;8.966;2022-11-15T07:13:43;95820.09;;;2.77;100.00
58385;BME280;44185;47.844;8.966;2022-11-15T07:16:09;95815.78;;;2.91;100.00
58385;BME280;44185;47.844;8.966;2022-11-15T07:18:35;95814.19;;;3.03;100.00
58385;BME280;44185;47.844;8.966;2022-11-15T07:21:02;95811.00;;;3.13;100.00
58385;BME280;44185;47.844;8.966;2022-11-15T07:23:28;95810.09;;;3.27;100.00
58385;BME280;44185;47.844;8.966;2022-11-15T07:25:53;95804.59;;;3.31;100.00
58385;BME280;44185;47.844;8.966;2022-11-15T07:28:19;95809.97;;;3.43;100.00
58385;BME280;44185;47.844;8.966;2022-11-15T07:30:45;95804.69;;;3.58;100.00
58385;BME280;44185;47.844;8.966;2022-11-15T07:33:11;95793.63;;;3.67;100.00
58385;BME280;44185;47.844;8.966;2022-11-15T07:35:36;95800.78;;;3.78;100.00
58385;BME280;44185;47.844;8.966;2022-11-15T07:38:03;95796.81;;;3.85;100.00
58385;BME280;44185;47.844;8.966;2022-11-15T07:40:30;95796.63;;;4.02;100.00
58385;BME280;44185;47.844;8.966;2022-11-15T07:42:59;95798.22;;;4.17;100.00
58385;BME280;44185;47.844;8.966;2022-11-15T07:45:25;95800.84;;;4.30;100.00
58385;BME280;44185;47.844;8.966;2022-11-15T07:47:52;95800.03;;;4.30;100.00
58385;BME280;44185;47.844;8.966;2022-11-15T07:50:18;95806.09;;;4.30;100.00
58385;BME280;44185;47.844;8.966;2022-11-15T07:52:45;95798.22;;;4.30;100.00
58385;BME280;44185;47.844;8.966;2022-11-15T07:55:10;95807.56;;;4.34;100.00
58385;BME280;44185;47.844;8.966;2022-11-15T07:57:36;95792.25;;;4.41;100.00
58385;BME280;44185;47.844;8.966;2022-11-15T08:00:03;95790.47;;;4.42;100.00
58385;BME280;44185;47.844;8.966;2022-11-15T08:02:29;95795.41;;;4.47;100.00
58385;BME280;44185;47.844;8.966;2022-11-15T08:04:56;95793.28;;;4.52;100.00
58385;BME280;44185;47.844;8.966;2022-11-15T08:07:21;95787.66;;;4.58;100.00
58385;BME280;44185;47.844;8.966;2022-11-15T08:09:47;95783.75;;;4.64;100.00
58385;BME280;44185;47.844;8.966;2022-11-15T08:12:13;95780.31;;;4.63;100.00
58385;BME280;44185;47.844;8.966;2022-11-15T08:14:39;95784.69;;;4.63;100.00
58385;BME280;44185;47.844;8.966;2022-11-15T08:17:04;95775.25;;;4.73;100.00
58385;BME280;44185;47.844;8.966;2022-11-15T08:19:30;95777.31;;;4.81;100.00
58385;BME280;44185;47.844;8.966;2022-11-15T08:21:57;95779.53;;;4.87;100.00
58385;BME280;44185;47.844;8.966;2022-11-15T08:24:23;95774.03;;;5.04;100.00
58385;BME280;44185;47.844;8.966;2022-11-15T08:26:48;95769.69;;;5.16;100.00
58385;BME280;44185;47.844;8.966;2022-11-15T08:29:14;95768.69;;;5.30;100.00
58385;BME280;44185;47.844;8.966;2022-11-15T08:31:39;95769.22;;;5.35;100.00
58385;BME280;44185;47.844;8.966;2022-11-15T08:34:05;95768.31;;;5.48;100.00
58385;BME280;44185;47.844;8.966;2022-11-15T08:36:31;95757.28;;;5.67;100.00
58385;BME280;44185;47.844;8.966;2022-11-15T08:38:58;95750.06;;;5.82;100.00
58385;BME280;44185;47.844;8.966;2022-11-15T08:41:31;95754.38;;;5.95;100.00
58385;BME280;44185;47.844;8.966;2022-11-15T08:43:57;95758.13;;;6.04;100.00
58385;BME280;44185;47.844;8.966;2022-11-15T08:46:23;95754.94;;;6.11;100.00
58385;BME280;44185;47.844;8.966;2022-11-15T08:48:48;95753.19;;;6.23;100.00
58385;BME280;44185;47.844;8.966;2022-11-15T08:51:14;95753.31;;;6.33;100.00
58385;BME280;44185;47.844;8.966;2022-11-15T08:53:39;95752.47;;;6.33;100.00
58385;BME280;44185;47.844;8.966;2022-11-15T08:56:08;95744.34;;;6.48;100.00
58385;BME280;44185;47.844;8.966;2022-11-15T08:58:34;95745.44;;;6.56;100.00
58385;BME280;44185;47.844;8.966;2022-11-15T09:00:59;95740.03;;;6.70;100.00
58385;BME280;44185;47.844;8.966;2022-11-15T09:03:25;95743.16;;;6.75;100.00
58385;BME280;44185;47.844;8.966;2022-11-15T09:05:54;95745.50;;;7.01;100.00
58385;BME280;44185;47.844;8.966;2022-11-15T09:08:20;95746.72;;;6.97;100.00
58385;BME280;44185;47.844;8.966;2022-11-15T09:10:45;95750.66;;;7.03;100.00
58385;BME280;44185;47.844;8.966;2022-11-15T09:13:12;95745.13;;;7.17;100.00
58385;BME280;44185;47.844;8.966;2022-11-15T09:15:38;95749.53;;;7.17;100.00
58385;BME280;44185;47.844;8.966;2022-11-15T09:18:03;95744.72;;;7.33;100.00
58385;BME280;44185;47.844;8.966;2022-11-15T09:20:29;95747.69;;;7.40;100.00
58385;BME280;44185;47.844;8.966;2022-11-15T09:22:54;95739.19;;;7.48;100.00
58385;BME280;44185;47.844;8.966;2022-11-15T09:25:19;95734.03;;;7.47;100.00
58385;BME280;44185;47.844;8.966;2022-11-15T09:27:45;95745.06;;;7.40;100.00
58385;BME280;44185;47.844;8.966;2022-11-15T09:30:13;95743.53;;;7.38;100.00
58385;BME280;44185;47.844;8.966;2022-11-15T09:32:38;95748.41;;;7.42;100.00
58385;BME280;44185;47.844;8.966;2022-11-15T09:35:04;95739.88;;;7.50;100.00
58385;BME280;44185;47.844;8.966;2022-11-15T09:37:31;95746.28;;;7.69;100.00
58385;BME280;44185;47.844;8.966;2022-11-15T09:39:57;95748.28;;;7.77;100.00
58385;BME280;44185;47.844;8.966;2022-11-15T09:42:46;95739.03;;;7.83;100.00
58385;BME280;44185;47.844;8.966;2022-11-15T09:45:22;95740.19;;;7.90;100.00
58385;BME280;44185;47.844;8.966;2022-11-15T09:48:19;95743.66;;;7.90;100.00
58385;BME280;44185;47.844;8.966;2022-11-15T09:50:52;95740.59;;;8.07;100.00
58385;BME280;44185;47.844;8.966;2022-11-15T09:53:24;95739.78;;;8.16;100.00
58385;BME280;44185;47.844;8.966;2022-11-15T09:55:55;95741.19;;;8.20;100.00
58385;BME280;44185;47.844;8.966;2022-11-15T09:58:27;95733.88;;;8.03;100.00
58385;BME280;44185;47.844;8.966;2022-11-15T10:01:00;95734.38;;;8.18;100.00
58385;BME280;44185;47.844;8.966;2022-11-15T10:03:34;95727.91;;;8.22;100.00
58385;BME280;44185;47.844;8.966;2022-11-15T10:06:02;95727.47;;;8.48;100.00
58385;BME280;44185;47.844;8.966;2022-11-15T10:08:39;95732.97;;;8.35;100.00
58385;BME280;44185;47.844;8.966;2022-11-15T10:11:10;95726.41;;;8.08;100.00
58385;BME280;44185;47.844;8.966;2022-11-15T10:13:40;95720.25;;;7.97;100.00
58385;BME280;44185;47.844;8.966;2022-11-15T10:16:16;95726.75;;;7.93;100.00
58385;BME280;44185;47.844;8.966;2022-11-15T10:18:54;95725.50;;;7.76;100.00
58385;BME280;44185;47.844;8.966;2022-11-15T10:21:25;95713.31;;;7.75;100.00
58385;BME280;44185;47.844;8.966;2022-11-15T10:23:53;95707.72;;;7.68;100.00
58385;BME280;44185;47.844;8.966;2022-11-15T10:26:18;95709.31;;;7.81;100.00
58385;BME280;44185;47.844;8.966;2022-11-15T10:28:44;95694.25;;;7.83;100.00
58385;BME280;44185;47.844;8.966;2022-11-15T10:31:22;95697.78;;;7.93;100.00
58385;BME280;44185;47.844;8.966;2022-11-15T10:33:49;95694.41;;;7.91;100.00
58385;BME280;44185;47.844;8.966;2022-11-15T10:36:20;95691.63;;;7.83;100.00
58385;BME280;44185;47.844;8.966;2022-11-15T10:38:55;95692.88;;;7.88;100.00
58385;BME280;44185;47.844;8.966;2022-11-15T10:41:22;95703.09;;;8.03;100.00
58385;BME280;44185;47.844;8.966;2022-11-15T10:44:10;95699.50;;;8.04;100.00
58385;BME280;44185;47.844;8.966;2022-11-15T10:46:39;95697.38;;;7.98;100.00
58385;BME280;44185;47.844;8.966;2022-11-15T10:49:12;95689.16;;;7.91;100.00
58385;BME280;44185;47.844;8.966;2022-11-15T10:51:42;95696.69;;;7.96;100.00
58385;BME280;44185;47.844;8.966;2022-11-15T10:54:10;95700.53;;;7.92;100.00
58385;BME280;44185;47.844;8.966;2022-11-15T10:56:36;95700.56;;;8.01;100.00
58385;BME280;44185;47.844;8.966;2022-11-15T10:59:01;95692.31;;;8.06;100.00
58385;BME280;44185;47.844;8.966;2022-11-15T11:01:28;95686.34;;;8.04;100.00
58385;BME280;44185;47.844;8.966;2022-11-15T11:04:02;95683.16;;;8.10;100.00
58385;BME280;44185;47.844;8.966;2022-11-15T11:06:28;95680.19;;;8.25;100.00
58385;BME280;44185;47.844;8.966;2022-11-15T11:08:57;95680.63;;;8.30;100.00
58385;BME280;44185;47.844;8.966;2022-11-15T11:11:22;95679.78;;;8.30;100.00
58385;BME280;44185;47.844;8.966;2022-11-15T11:13:48;95667.06;;;8.35;100.00
58385;BME280;44185;47.844;8.966;2022-11-15T11:16:32;95666.06;;;8.36;100.00
58385;BME280;44185;47.844;8.966;2022-11-15T11:19:09;95656.59;;;8.23;100.00
58385;BME280;44185;47.844;8.966;2022-11-15T11:21:46;95650.97;;;8.38;100.00
58385;BME280;44185;47.844;8.966;2022-11-15T11:24:20;95653.06;;;8.44;100.00
58385;BME280;44185;47.844;8.966;2022-11-15T11:26:57;95649.19;;;8.49;100.00
58385;BME280;44185;47.844;8.966;2022-11-15T11:29:33;95650.56;;;8.43;100.00
58385;BME280;44185;47.844;8.966;2022-11-15T11:32:08;95652.13;;;8.55;100.00
58385;BME280;44185;47.844;8.966;2022-11-15T11:34:48;95651.03;;;8.58;100.00
58385;BME280;44185;47.844;8.966;2022-11-15T11:37:21;95650.53;;;8.64;100.00
58385;BME280;44185;47.844;8.966;2022-11-15T11:39:59;95650.78;;;8.61;100.00
58385;BME280;44185;47.844;8.966;2022-11-15T11:42:41;95653.16;;;8.64;100.00
58385;BME280;44185;47.844;8.966;2022-11-15T11:45:16;95654.25;;;8.62;100.00
58385;BME280;44185;47.844;8.966;2022-11-15T11:47:47;95654.75;;;8.55;100.00
58385;BME280;44185;47.844;8.966;2022-11-15T11:50:17;95653.91;;;8.55;100.00
58385;BME280;44185;47.844;8.966;2022-11-15T11:52:44;95647.19;;;8.62;100.00
58385;BME280;44185;47.844;8.966;2022-11-15T11:55:16;95646.50;;;8.70;100.00
58385;BME280;44185;47.844;8.966;2022-11-15T11:57:46;95643.72;;;8.72;100.00
58385;BME280;44185;47.844;8.966;2022-11-15T12:00:15;95639.47;;;8.81;100.00
58385;BME280;44185;47.844;8.966;2022-11-15T12:02:45;95636.09;;;8.78;100.00
58385;BME280;44185;47.844;8.966;2022-11-15T12:05:20;95637.09;;;8.87;100.00
58385;BME280;44185;47.844;8.966;2022-11-15T12:07:48;95632.75;;;8.76;100.00
58385;BME280;44185;47.844;8.966;2022-11-15T12:10:19;95632.91;;;8.65;100.00
58385;BME280;44185;47.844;8.966;2022-11-15T12:12:53;95632.75;;;8.66;100.00
58385;BME280;44185;47.844;8.966;2022-11-15T12:15:23;95620.53;;;8.65;100.00
58385;BME280;44185;47.844;8.966;2022-11-15T12:17:50;95622.09;;;8.78;100.00
58385;BME280;44185;47.844;8.966;2022-11-15T12:20:18;95624.59;;;8.79;100.00
58385;BME280;44185;47.844;8.966;2022-11-15T12:22:49;95614.19;;;8.78;100.00
58385;BME280;44185;47.844;8.966;2022-11-15T12:25:20;95604.28;;;8.60;100.00
58385;BME280;44185;47.844;8.966;2022-11-15T12:27:50;95596.78;;;8.65;100.00
58385;BME280;44185;47.844;8.966;2022-11-15T12:30:20;95580.97;;;8.65;100.00
58385;BME280;44185;47.844;8.966;2022-11-15T12:32:51;95582.38;;;8.60;100.00
58385;BME280;44185;47.844;8.966;2022-11-15T12:35:25;95587.34;;;8.63;100.00
58385;BME280;44185;47.844;8.966;2022-11-15T12:37:52;95584.31;;;8.67;100.00
58385;BME280;44185;47.844;8.966;2022-11-15T12:40:35;95574.44;;;8.60;100.00
58385;BME280;44185;47.844;8.966;2022-11-15T12:43:05;95566.53;;;8.70;100.00
58385;BME280;44185;47.844;8.966;2022-11-15T12:45:32;95563.16;;;8.57;100.00
58385;BME280;44185;47.844;8.966;2022-11-15T12:48:48;95556.00;;;8.60;100.00
58385;BME280;44185;47.844;8.966;2022-11-15T12:51:16;95551.91;;;8.55;100.00
58385;BME280;44185;47.844;8.966;2022-11-15T12:53:42;95554.03;;;8.62;100.00
58385;BME280;44185;47.844;8.966;2022-11-15T12:56:21;95545.38;;;8.50;100.00
58385;BME280;44185;47.844;8.966;2022-11-15T12:58:49;95540.50;;;8.45;100.00
58385;BME280;44185;47.844;8.966;2022-11-15T13:04:22;95533.44;;;8.45;100.00
58385;BME280;44185;47.844;8.966;2022-11-15T13:06:51;95530.38;;;8.40;100.00
58385;BME280;44185;47.844;8.966;2022-11-15T13:09:52;95523.16;;;8.42;100.00
58385;BME280;44185;47.844;8.966;2022-11-15T13:12:52;95521.38;;;8.43;100.00